sensor_id;sensor_type;location;lat;lon;timestamp;P1;durP1;ratioP1;P2;durP2;ratioP2
76193;SDS011;64963;52.212;7.482;2022-12-20T00:01:56;7.07;;;3.83;;
76193;SDS011;64963;52.212;7.482;2022-12-20T00:04:21;8.53;;;4.10;;
76193;SDS011;64963;52.212;7.482;2022-12-20T00:06:46;7.70;;;3.90;;
76193;SDS011;64963;52.212;7.482;2022-12-20T00:09:11;6.85;;;3.83;;
76193;SDS011;64963;52.212;7.482;2022-12-20T00:11:40;9.17;;;4.20;;
76193;SDS011;64963;52.212;7.482;2022-12-20T00:14:06;7.63;;;4.30;;
76193;SDS011;64963;52.212;7.482;2022-12-20T00:16:31;6.83;;;3.80;;
76193;SDS011;64963;52.212;7.482;2022-12-20T00:18:57;7.00;;;4.20;;
76193;SDS011;64963;52.212;7.482;2022-12-20T00:21:22;9.15;;;4.00;;
76193;SDS011;64963;52.212;7.482;2022-12-20T00:23:48;7.37;;;4.03;;
76193;SDS011;64963;52.212;7.482;2022-12-20T00:26:17;6.83;;;4.57;;
76193;SDS011;64963;52.212;7.482;2022-12-20T00:28:42;8.30;;;3.95;;
76193;SDS011;64963;52.212;7.482;2022-12-20T00:31:08;8.05;;;3.30;;
76193;SDS011;64963;52.212;7.482;2022-12-20T00:33:34;7.60;;;4.40;;
76193;SDS011;64963;52.212;7.482;2022-12-20T00:36:00;7.47;;;3.80;;
76193;SDS011;64963;52.212;7.482;2022-12-20T00:38:26;6.47;;;3.63;;
76193;SDS011;64963;52.212;7.482;2022-12-20T00:43:35;7.78;;;4.10;;
76193;SDS011;64963;52.212;7.482;2022-12-20T00:46:01;11.37;;;4.10;;
76193;SDS011;64963;52.212;7.482;2022-12-20T00:48:26;7.90;;;4.10;;
76193;SDS011;64963;52.212;7.482;2022-12-20T00:50:56;7.72;;;3.88;;
76193;SDS011;64963;52.212;7.482;2022-12-20T00:53:22;9.53;;;4.23;;
76193;SDS011;64963;52.212;7.482;2022-12-20T00:55:47;7.20;;;3.63;;
76193;SDS011;64963;52.212;7.482;2022-12-20T00:58:12;8.03;;;3.50;;
76193;SDS011;64963;52.212;7.482;2022-12-20T01:00:37;8.00;;;3.73;;
76193;SDS011;64963;52.212;7.482;2022-12-20T01:03:03;8.43;;;4.35;;
76193;SDS011;64963;52.212;7.482;2022-12-20T01:05:30;8.00;;;3.83;;
76193;SDS011;64963;52.212;7.482;2022-12-20T01:07:55;9.23;;;4.00;;
76193;SDS011;64963;52.212;7.482;2022-12-20T01:10:20;6.27;;;4.00;;
76193;SDS011;64963;52.212;7.482;2022-12-20T01:12:46;6.20;;;3.80;;
76193;SDS011;64963;52.212;7.482;2022-12-20T01:15:11;7.27;;;3.80;;
76193;SDS011;64963;52.212;7.482;2022-12-20T01:17:36;6.35;;;3.55;;
76193;SDS011;64963;52.212;7.482;2022-12-20T01:20:03;6.93;;;3.63;;
76193;SDS011;64963;52.212;7.482;2022-12-20T01:22:28;5.68;;;3.30;;
76193;SDS011;64963;52.212;7.482;2022-12-20T01:24:54;9.27;;;4.03;;
76193;SDS011;64963;52.212;7.482;2022-12-20T01:27:19;6.80;;;3.53;;
76193;SDS011;64963;52.212;7.482;2022-12-20T01:29:44;8.97;;;3.53;;
76193;SDS011;64963;52.212;7.482;2022-12-20T01:32:09;6.43;;;3.60;;
76193;SDS011;64963;52.212;7.482;2022-12-20T01:34:34;6.33;;;3.77;;
76193;SDS011;64963;52.212;7.482;2022-12-20T01:36:59;6.43;;;3.50;;
76193;SDS011;64963;52.212;7.482;2022-12-20T01:39:25;8.20;;;3.50;;
76193;SDS011;64963;52.212;7.482;2022-12-20T01:41:50;5.57;;;3.35;;
76193;SDS011;64963;52.212;7.482;2022-12-20T01:46:40;7.57;;;3.33;;
76193;SDS011;64963;52.212;7.482;2022-12-20T01:51:51;5.65;;;3.10;;
76193;SDS011;64963;52.212;7.482;2022-12-20T01:56:47;7.07;;;3.97;;
76193;SDS011;64963;52.212;7.482;2022-12-20T01:59:14;6.15;;;3.72;;
76193;SDS011;64963;52.212;7.482;2022-12-20T02:01:40;6.30;;;3.40;;
76193;SDS011;64963;52.212;7.482;2022-12-20T02:04:05;6.82;;;3.40;;
76193;SDS011;64963;52.212;7.482;2022-12-20T02:06:31;6.93;;;3.00;;
76193;SDS011;64963;52.212;7.482;2022-12-20T02:08:57;6.73;;;3.60;;
76193;SDS011;64963;52.212;7.482;2022-12-20T02:16:48;5.43;;;3.05;;
76193;SDS011;64963;52.212;7.482;2022-12-20T02:21:57;8.35;;;3.70;;
76193;SDS011;64963;52.212;7.482;2022-12-20T02:27:29;5.40;;;2.60;;
76193;SDS011;64963;52.212;7.482;2022-12-20T02:32:26;4.45;;;2.78;;
76193;SDS011;64963;52.212;7.482;2022-12-20T02:34:52;6.35;;;2.90;;
76193;SDS011;64963;52.212;7.482;2022-12-20T02:37:18;5.67;;;3.10;;
76193;SDS011;64963;52.212;7.482;2022-12-20T02:39:44;6.10;;;2.77;;
76193;SDS011;64963;52.212;7.482;2022-12-20T02:42:11;6.45;;;3.30;;
76193;SDS011;64963;52.212;7.482;2022-12-20T02:44:38;4.90;;;2.50;;
76193;SDS011;64963;52.212;7.482;2022-12-20T02:47:05;6.55;;;2.78;;
76193;SDS011;64963;52.212;7.482;2022-12-20T02:49:32;5.15;;;2.88;;
76193;SDS011;64963;52.212;7.482;2022-12-20T02:51:58;6.80;;;2.87;;
76193;SDS011;64963;52.212;7.482;2022-12-20T02:54:25;9.38;;;3.97;;
76193;SDS011;64963;52.212;7.482;2022-12-20T02:56:53;8.77;;;3.77;;
76193;SDS011;64963;52.212;7.482;2022-12-20T02:59:20;6.15;;;3.78;;
76193;SDS011;64963;52.212;7.482;2022-12-20T03:01:48;7.15;;;3.55;;
76193;SDS011;64963;52.212;7.482;2022-12-20T03:04:14;8.07;;;4.20;;
76193;SDS011;64963;52.212;7.482;2022-12-20T03:06:54;9.13;;;4.97;;
76193;SDS011;64963;52.212;7.482;2022-12-20T03:09:19;7.43;;;4.10;;
76193;SDS011;64963;52.212;7.482;2022-12-20T03:11:44;8.03;;;3.80;;
76193;SDS011;64963;52.212;7.482;2022-12-20T03:14:09;8.03;;;3.87;;
76193;SDS011;64963;52.212;7.482;2022-12-20T03:16:34;9.55;;;4.75;;
76193;SDS011;64963;52.212;7.482;2022-12-20T03:19:00;6.13;;;3.47;;
76193;SDS011;64963;52.212;7.482;2022-12-20T03:21:25;8.00;;;3.47;;
76193;SDS011;64963;52.212;7.482;2022-12-20T03:23:50;8.00;;;4.30;;
76193;SDS011;64963;52.212;7.482;2022-12-20T03:26:15;8.02;;;3.78;;
76193;SDS011;64963;52.212;7.482;2022-12-20T03:28:40;7.77;;;3.63;;
76193;SDS011;64963;52.212;7.482;2022-12-20T03:31:05;6.03;;;3.40;;
76193;SDS011;64963;52.212;7.482;2022-12-20T03:33:30;8.43;;;4.37;;
76193;SDS011;64963;52.212;7.482;2022-12-20T03:35:56;7.97;;;4.27;;
76193;SDS011;64963;52.212;7.482;2022-12-20T03:38:21;9.93;;;4.03;;
76193;SDS011;64963;52.212;7.482;2022-12-20T03:40:46;6.80;;;4.00;;
76193;SDS011;64963;52.212;7.482;2022-12-20T03:43:11;8.10;;;4.10;;
76193;SDS011;64963;52.212;7.482;2022-12-20T03:45:36;6.63;;;3.87;;
76193;SDS011;64963;52.212;7.482;2022-12-20T03:48:02;7.60;;;4.40;;
76193;SDS011;64963;52.212;7.482;2022-12-20T03:50:27;7.90;;;4.10;;
76193;SDS011;64963;52.212;7.482;2022-12-20T03:52:52;8.43;;;4.23;;
76193;SDS011;64963;52.212;7.482;2022-12-20T03:55:17;8.33;;;4.37;;
76193;SDS011;64963;52.212;7.482;2022-12-20T03:57:42;7.35;;;4.25;;
76193;SDS011;64963;52.212;7.482;2022-12-20T04:00:07;9.23;;;5.30;;
76193;SDS011;64963;52.212;7.482;2022-12-20T04:02:33;12.00;;;5.83;;
76193;SDS011;64963;52.212;7.482;2022-12-20T04:04:58;10.40;;;5.77;;
76193;SDS011;64963;52.212;7.482;2022-12-20T04:07:23;12.67;;;5.40;;
76193;SDS011;64963;52.212;7.482;2022-12-20T04:09:48;11.57;;;6.40;;
76193;SDS011;64963;52.212;7.482;2022-12-20T04:12:13;11.03;;;5.90;;
76193;SDS011;64963;52.212;7.482;2022-12-20T04:14:39;9.60;;;4.87;;
76193;SDS011;64963;52.212;7.482;2022-12-20T04:17:04;11.03;;;5.80;;
76193;SDS011;64963;52.212;7.482;2022-12-20T04:19:29;11.33;;;6.03;;
76193;SDS011;64963;52.212;7.482;2022-12-20T04:21:54;10.97;;;5.80;;
76193;SDS011;64963;52.212;7.482;2022-12-20T04:24:19;11.83;;;6.20;;
76193;SDS011;64963;52.212;7.482;2022-12-20T04:26:44;14.82;;;6.63;;
76193;SDS011;64963;52.212;7.482;2022-12-20T04:29:10;8.73;;;5.33;;
76193;SDS011;64963;52.212;7.482;2022-12-20T04:31:35;9.67;;;5.13;;
76193;SDS011;64963;52.212;7.482;2022-12-20T04:34:00;7.90;;;4.40;;
76193;SDS011;64963;52.212;7.482;2022-12-20T04:36:25;9.27;;;4.60;;
76193;SDS011;64963;52.212;7.482;2022-12-20T04:38:50;7.37;;;4.33;;
76193;SDS011;64963;52.212;7.482;2022-12-20T04:41:16;9.37;;;5.03;;
76193;SDS011;64963;52.212;7.482;2022-12-20T04:43:41;9.07;;;5.43;;
76193;SDS011;64963;52.212;7.482;2022-12-20T04:46:06;8.97;;;5.30;;
76193;SDS011;64963;52.212;7.482;2022-12-20T04:48:31;7.50;;;4.50;;
76193;SDS011;64963;52.212;7.482;2022-12-20T04:50:56;10.93;;;5.70;;
76193;SDS011;64963;52.212;7.482;2022-12-20T04:53:22;7.87;;;4.33;;
76193;SDS011;64963;52.212;7.482;2022-12-20T04:55:47;7.95;;;4.90;;
76193;SDS011;64963;52.212;7.482;2022-12-20T04:58:12;9.20;;;4.60;;
76193;SDS011;64963;52.212;7.482;2022-12-20T05:00:38;11.03;;;5.07;;
76193;SDS011;64963;52.212;7.482;2022-12-20T05:03:03;7.23;;;4.37;;
76193;SDS011;64963;52.212;7.482;2022-12-20T05:05:28;6.80;;;3.77;;
76193;SDS011;64963;52.212;7.482;2022-12-20T05:07:53;8.50;;;4.40;;
76193;SDS011;64963;52.212;7.482;2022-12-20T05:10:19;7.13;;;3.70;;
76193;SDS011;64963;52.212;7.482;2022-12-20T05:12:44;7.70;;;4.10;;
76193;SDS011;64963;52.212;7.482;2022-12-20T05:15:10;8.17;;;4.17;;
76193;SDS011;64963;52.212;7.482;2022-12-20T05:17:35;9.40;;;4.25;;
76193;SDS011;64963;52.212;7.482;2022-12-20T05:20:00;7.23;;;3.97;;
76193;SDS011;64963;52.212;7.482;2022-12-20T05:22:25;7.87;;;4.03;;
76193;SDS011;64963;52.212;7.482;2022-12-20T05:24:51;8.40;;;4.27;;
76193;SDS011;64963;52.212;7.482;2022-12-20T05:27:16;6.63;;;3.73;;
76193;SDS011;64963;52.212;7.482;2022-12-20T05:29:41;9.50;;;4.53;;
76193;SDS011;64963;52.212;7.482;2022-12-20T05:32:06;11.17;;;4.67;;
76193;SDS011;64963;52.212;7.482;2022-12-20T05:34:31;6.50;;;4.10;;
76193;SDS011;64963;52.212;7.482;2022-12-20T05:36:56;9.17;;;4.00;;
76193;SDS011;64963;52.212;7.482;2022-12-20T05:39:22;10.00;;;4.00;;
76193;SDS011;64963;52.212;7.482;2022-12-20T05:41:48;10.63;;;4.40;;
76193;SDS011;64963;52.212;7.482;2022-12-20T05:44:13;8.35;;;4.20;;
76193;SDS011;64963;52.212;7.482;2022-12-20T05:46:38;8.57;;;3.90;;
76193;SDS011;64963;52.212;7.482;2022-12-20T05:49:04;7.63;;;3.87;;
76193;SDS011;64963;52.212;7.482;2022-12-20T05:51:29;7.33;;;4.07;;
76193;SDS011;64963;52.212;7.482;2022-12-20T05:53:54;9.00;;;3.97;;
76193;SDS011;64963;52.212;7.482;2022-12-20T05:56:19;8.77;;;3.80;;
76193;SDS011;64963;52.212;7.482;2022-12-20T05:58:44;8.10;;;4.17;;
76193;SDS011;64963;52.212;7.482;2022-12-20T06:01:09;7.70;;;3.90;;
76193;SDS011;64963;52.212;7.482;2022-12-20T06:03:35;7.57;;;3.80;;
76193;SDS011;64963;52.212;7.482;2022-12-20T06:06:00;7.60;;;3.90;;
76193;SDS011;64963;52.212;7.482;2022-12-20T06:08:26;9.15;;;3.92;;
76193;SDS011;64963;52.212;7.482;2022-12-20T06:10:51;8.73;;;3.70;;
76193;SDS011;64963;52.212;7.482;2022-12-20T06:13:16;7.50;;;4.00;;
76193;SDS011;64963;52.212;7.482;2022-12-20T06:15:41;6.93;;;3.93;;
76193;SDS011;64963;52.212;7.482;2022-12-20T06:18:07;11.60;;;6.00;;
76193;SDS011;64963;52.212;7.482;2022-12-20T06:20:36;7.93;;;5.00;;
76193;SDS011;64963;52.212;7.482;2022-12-20T06:23:01;7.18;;;4.57;;
76193;SDS011;64963;52.212;7.482;2022-12-20T06:25:27;8.63;;;4.23;;
76193;SDS011;64963;52.212;7.482;2022-12-20T06:27:52;9.10;;;4.70;;
76193;SDS011;64963;52.212;7.482;2022-12-20T06:30:17;7.27;;;4.37;;
76193;SDS011;64963;52.212;7.482;2022-12-20T06:32:42;8.73;;;4.57;;
76193;SDS011;64963;52.212;7.482;2022-12-20T06:35:08;8.03;;;4.10;;
76193;SDS011;64963;52.212;7.482;2022-12-20T06:37:33;9.30;;;4.87;;
76193;SDS011;64963;52.212;7.482;2022-12-20T06:39:58;7.73;;;5.30;;
76193;SDS011;64963;52.212;7.482;2022-12-20T06:42:23;12.80;;;5.27;;
76193;SDS011;64963;52.212;7.482;2022-12-20T06:44:48;11.03;;;4.80;;
76193;SDS011;64963;52.212;7.482;2022-12-20T06:47:14;9.30;;;4.80;;
76193;SDS011;64963;52.212;7.482;2022-12-20T06:49:39;11.53;;;5.73;;
76193;SDS011;64963;52.212;7.482;2022-12-20T06:52:04;9.23;;;5.40;;
76193;SDS011;64963;52.212;7.482;2022-12-20T06:54:29;9.87;;;6.20;;
76193;SDS011;64963;52.212;7.482;2022-12-20T06:56:55;9.23;;;5.13;;
76193;SDS011;64963;52.212;7.482;2022-12-20T06:59:20;9.30;;;6.00;;
76193;SDS011;64963;52.212;7.482;2022-12-20T07:01:45;8.93;;;5.27;;
76193;SDS011;64963;52.212;7.482;2022-12-20T07:04:10;8.47;;;5.47;;
76193;SDS011;64963;52.212;7.482;2022-12-20T07:06:35;9.73;;;5.43;;
76193;SDS011;64963;52.212;7.482;2022-12-20T07:09:00;9.73;;;4.60;;
76193;SDS011;64963;52.212;7.482;2022-12-20T07:11:26;8.40;;;4.63;;
76193;SDS011;64963;52.212;7.482;2022-12-20T07:13:57;7.03;;;4.67;;
76193;SDS011;64963;52.212;7.482;2022-12-20T07:16:22;11.20;;;4.95;;
76193;SDS011;64963;52.212;7.482;2022-12-20T07:18:49;8.10;;;5.03;;
76193;SDS011;64963;52.212;7.482;2022-12-20T07:21:14;10.02;;;5.07;;
76193;SDS011;64963;52.212;7.482;2022-12-20T07:23:39;10.13;;;5.40;;
76193;SDS011;64963;52.212;7.482;2022-12-20T07:26:04;7.30;;;4.57;;
76193;SDS011;64963;52.212;7.482;2022-12-20T07:28:29;8.40;;;4.40;;
76193;SDS011;64963;52.212;7.482;2022-12-20T07:30:58;7.70;;;4.37;;
76193;SDS011;64963;52.212;7.482;2022-12-20T07:33:24;9.23;;;4.88;;
76193;SDS011;64963;52.212;7.482;2022-12-20T07:35:49;7.37;;;4.20;;
76193;SDS011;64963;52.212;7.482;2022-12-20T07:38:14;8.27;;;5.17;;
76193;SDS011;64963;52.212;7.482;2022-12-20T07:40:40;8.20;;;5.47;;
76193;SDS011;64963;52.212;7.482;2022-12-20T07:43:05;10.90;;;6.68;;
76193;SDS011;64963;52.212;7.482;2022-12-20T07:45:30;9.13;;;5.30;;
76193;SDS011;64963;52.212;7.482;2022-12-20T07:47:56;9.40;;;4.97;;
76193;SDS011;64963;52.212;7.482;2022-12-20T07:50:21;12.63;;;5.10;;
76193;SDS011;64963;52.212;7.482;2022-12-20T07:52:47;6.82;;;4.85;;
76193;SDS011;64963;52.212;7.482;2022-12-20T07:55:13;10.40;;;5.67;;
76193;SDS011;64963;52.212;7.482;2022-12-20T07:57:42;9.63;;;5.03;;
76193;SDS011;64963;52.212;7.482;2022-12-20T08:00:10;8.32;;;4.70;;
76193;SDS011;64963;52.212;7.482;2022-12-20T08:02:37;8.75;;;4.80;;
76193;SDS011;64963;52.212;7.482;2022-12-20T08:05:04;6.93;;;4.53;;
76193;SDS011;64963;52.212;7.482;2022-12-20T08:07:30;9.30;;;4.75;;
76193;SDS011;64963;52.212;7.482;2022-12-20T08:09:56;9.23;;;4.97;;
76193;SDS011;64963;52.212;7.482;2022-12-20T08:12:21;8.80;;;4.85;;
76193;SDS011;64963;52.212;7.482;2022-12-20T08:14:47;9.30;;;4.78;;
76193;SDS011;64963;52.212;7.482;2022-12-20T08:17:12;9.43;;;5.67;;
76193;SDS011;64963;52.212;7.482;2022-12-20T08:19:38;10.37;;;5.33;;
76193;SDS011;64963;52.212;7.482;2022-12-20T08:22:03;8.73;;;4.80;;
76193;SDS011;64963;52.212;7.482;2022-12-20T08:24:28;11.53;;;5.97;;
76193;SDS011;64963;52.212;7.482;2022-12-20T08:26:53;9.10;;;5.50;;
76193;SDS011;64963;52.212;7.482;2022-12-20T08:29:19;9.83;;;5.00;;
76193;SDS011;64963;52.212;7.482;2022-12-20T08:31:44;10.20;;;5.47;;
76193;SDS011;64963;52.212;7.482;2022-12-20T08:34:09;8.00;;;5.00;;
76193;SDS011;64963;52.212;7.482;2022-12-20T08:36:34;7.90;;;5.00;;
76193;SDS011;64963;52.212;7.482;2022-12-20T08:39:03;7.90;;;5.03;;
76193;SDS011;64963;52.212;7.482;2022-12-20T08:41:28;9.10;;;5.00;;
76193;SDS011;64963;52.212;7.482;2022-12-20T08:43:53;7.67;;;4.67;;
76193;SDS011;64963;52.212;7.482;2022-12-20T08:46:18;6.87;;;4.17;;
76193;SDS011;64963;52.212;7.482;2022-12-20T08:48:44;7.80;;;4.40;;
76193;SDS011;64963;52.212;7.482;2022-12-20T08:51:09;10.80;;;4.70;;
76193;SDS011;64963;52.212;7.482;2022-12-20T08:53:34;7.97;;;4.40;;
76193;SDS011;64963;52.212;7.482;2022-12-20T08:56:11;7.13;;;4.35;;
76193;SDS011;64963;52.212;7.482;2022-12-20T08:58:36;7.23;;;4.23;;
76193;SDS011;64963;52.212;7.482;2022-12-20T09:01:03;7.60;;;4.10;;
76193;SDS011;64963;52.212;7.482;2022-12-20T09:03:28;8.23;;;4.87;;
76193;SDS011;64963;52.212;7.482;2022-12-20T09:05:54;8.75;;;4.60;;
76193;SDS011;64963;52.212;7.482;2022-12-20T09:08:19;9.93;;;4.50;;
76193;SDS011;64963;52.212;7.482;2022-12-20T09:10:44;6.83;;;4.00;;
76193;SDS011;64963;52.212;7.482;2022-12-20T09:13:10;6.87;;;3.83;;
76193;SDS011;64963;52.212;7.482;2022-12-20T09:15:35;5.77;;;3.60;;
76193;SDS011;64963;52.212;7.482;2022-12-20T09:18:00;8.80;;;3.90;;
76193;SDS011;64963;52.212;7.482;2022-12-20T09:20:26;7.30;;;3.80;;
76193;SDS011;64963;52.212;7.482;2022-12-20T09:22:51;7.32;;;3.50;;
76193;SDS011;64963;52.212;7.482;2022-12-20T09:25:17;9.23;;;3.73;;
76193;SDS011;64963;52.212;7.482;2022-12-20T09:27:42;7.30;;;3.85;;
76193;SDS011;64963;52.212;7.482;2022-12-20T09:30:07;6.50;;;3.67;;
76193;SDS011;64963;52.212;7.482;2022-12-20T09:32:32;8.73;;;3.53;;
76193;SDS011;64963;52.212;7.482;2022-12-20T09:34:58;5.87;;;3.63;;
76193;SDS011;64963;52.212;7.482;2022-12-20T09:37:23;9.13;;;3.50;;
76193;SDS011;64963;52.212;7.482;2022-12-20T09:39:48;7.23;;;3.10;;
76193;SDS011;64963;52.212;7.482;2022-12-20T09:42:13;8.00;;;3.33;;
76193;SDS011;64963;52.212;7.482;2022-12-20T09:44:39;6.57;;;3.13;;
76193;SDS011;64963;52.212;7.482;2022-12-20T09:49:38;7.15;;;3.15;;
76193;SDS011;64963;52.212;7.482;2022-12-20T09:57:03;5.38;;;2.80;;
76193;SDS011;64963;52.212;7.482;2022-12-20T09:59:32;5.20;;;2.88;;
76193;SDS011;64963;52.212;7.482;2022-12-20T10:01:58;5.68;;;2.90;;
76193;SDS011;64963;52.212;7.482;2022-12-20T10:14:40;5.45;;;2.88;;
76193;SDS011;64963;52.212;7.482;2022-12-20T10:17:36;4.22;;;2.72;;
76193;SDS011;64963;52.212;7.482;2022-12-20T10:19:59;6.90;;;3.40;;
76193;SDS011;64963;52.212;7.482;2022-12-20T10:22:41;7.15;;;2.83;;
76193;SDS011;64963;52.212;7.482;2022-12-20T10:25:12;6.13;;;2.90;;
76193;SDS011;64963;52.212;7.482;2022-12-20T10:27:41;6.28;;;3.13;;
76193;SDS011;64963;52.212;7.482;2022-12-20T10:30:18;7.75;;;3.03;;
76193;SDS011;64963;52.212;7.482;2022-12-20T10:32:44;10.00;;;3.60;;
76193;SDS011;64963;52.212;7.482;2022-12-20T10:37:35;6.35;;;3.10;;
76193;SDS011;64963;52.212;7.482;2022-12-20T10:40:00;7.27;;;3.07;;
76193;SDS011;64963;52.212;7.482;2022-12-20T10:44:58;7.20;;;3.30;;
76193;SDS011;64963;52.212;7.482;2022-12-20T10:47:28;6.00;;;3.30;;
76193;SDS011;64963;52.212;7.482;2022-12-20T10:50:06;5.75;;;3.45;;
76193;SDS011;64963;52.212;7.482;2022-12-20T10:52:32;6.07;;;2.90;;
76193;SDS011;64963;52.212;7.482;2022-12-20T10:54:57;6.07;;;3.00;;
76193;SDS011;64963;52.212;7.482;2022-12-20T10:57:23;7.60;;;3.37;;
76193;SDS011;64963;52.212;7.482;2022-12-20T10:59:50;7.43;;;3.40;;
76193;SDS011;64963;52.212;7.482;2022-12-20T11:04:44;6.38;;;2.78;;
76193;SDS011;64963;52.212;7.482;2022-12-20T11:07:22;6.78;;;3.13;;
76193;SDS011;64963;52.212;7.482;2022-12-20T11:09:52;5.77;;;3.37;;
76193;SDS011;64963;52.212;7.482;2022-12-20T11:12:18;4.38;;;2.80;;
76193;SDS011;64963;52.212;7.482;2022-12-20T11:14:44;4.87;;;2.50;;
76193;SDS011;64963;52.212;7.482;2022-12-20T11:22:13;5.47;;;2.60;;
76193;SDS011;64963;52.212;7.482;2022-12-20T11:32:29;5.63;;;2.67;;
76193;SDS011;64963;52.212;7.482;2022-12-20T11:37:23;6.50;;;2.67;;
76193;SDS011;64963;52.212;7.482;2022-12-20T11:39:55;5.25;;;2.40;;
76193;SDS011;64963;52.212;7.482;2022-12-20T11:50:24;5.05;;;2.80;;
76193;SDS011;64963;52.212;7.482;2022-12-20T11:52:59;6.10;;;3.40;;
76193;SDS011;64963;52.212;7.482;2022-12-20T11:55:35;6.43;;;3.03;;
76193;SDS011;64963;52.212;7.482;2022-12-20T12:00:33;4.83;;;2.93;;
76193;SDS011;64963;52.212;7.482;2022-12-20T12:03:07;5.88;;;3.25;;
76193;SDS011;64963;52.212;7.482;2022-12-20T12:05:39;10.13;;;3.20;;
76193;SDS011;64963;52.212;7.482;2022-12-20T12:08:06;7.22;;;3.10;;
76193;SDS011;64963;52.212;7.482;2022-12-20T12:10:36;5.50;;;2.65;;
76193;SDS011;64963;52.212;7.482;2022-12-20T12:15:52;5.35;;;2.67;;
76193;SDS011;64963;52.212;7.482;2022-12-20T12:18:20;8.55;;;3.75;;
76193;SDS011;64963;52.212;7.482;2022-12-20T12:23:35;5.57;;;2.97;;
76193;SDS011;64963;52.212;7.482;2022-12-20T12:26:04;6.63;;;2.90;;
76193;SDS011;64963;52.212;7.482;2022-12-20T12:28:29;5.25;;;3.03;;
76193;SDS011;64963;52.212;7.482;2022-12-20T12:31:14;5.50;;;3.13;;
76193;SDS011;64963;52.212;7.482;2022-12-20T12:36:32;5.03;;;2.67;;
76193;SDS011;64963;52.212;7.482;2022-12-20T12:46:43;7.32;;;3.40;;
76193;SDS011;64963;52.212;7.482;2022-12-20T12:49:11;7.20;;;3.25;;
76193;SDS011;64963;52.212;7.482;2022-12-20T12:51:40;6.88;;;3.42;;
76193;SDS011;64963;52.212;7.482;2022-12-20T12:56:50;9.67;;;4.23;;
76193;SDS011;64963;52.212;7.482;2022-12-20T13:01:55;7.05;;;3.78;;
76193;SDS011;64963;52.212;7.482;2022-12-20T13:04:53;7.00;;;3.65;;
76193;SDS011;64963;52.212;7.482;2022-12-20T13:07:24;8.63;;;4.30;;
76193;SDS011;64963;52.212;7.482;2022-12-20T13:09:49;16.23;;;4.60;;
76193;SDS011;64963;52.212;7.482;2022-12-20T13:15:45;9.87;;;4.53;;
76193;SDS011;64963;52.212;7.482;2022-12-20T13:17:49;8.98;;;4.65;;
76193;SDS011;64963;52.212;7.482;2022-12-20T13:25:30;9.63;;;5.60;;
76193;SDS011;64963;52.212;7.482;2022-12-20T13:33:43;8.25;;;5.05;;
76193;SDS011;64963;52.212;7.482;2022-12-20T13:38:36;9.60;;;5.15;;
76193;SDS011;64963;52.212;7.482;2022-12-20T13:41:03;11.40;;;6.45;;
76193;SDS011;64963;52.212;7.482;2022-12-20T13:43:34;9.90;;;5.45;;
76193;SDS011;64963;52.212;7.482;2022-12-20T13:49:14;8.63;;;5.50;;
76193;SDS011;64963;52.212;7.482;2022-12-20T13:51:23;11.50;;;5.50;;
76193;SDS011;64963;52.212;7.482;2022-12-20T13:58:50;10.80;;;5.57;;
76193;SDS011;64963;52.212;7.482;2022-12-20T14:01:15;7.83;;;4.50;;
76193;SDS011;64963;52.212;7.482;2022-12-20T14:03:41;8.33;;;4.90;;
76193;SDS011;64963;52.212;7.482;2022-12-20T14:06:10;11.50;;;4.82;;
76193;SDS011;64963;52.212;7.482;2022-12-20T14:08:42;10.88;;;5.30;;
76193;SDS011;64963;52.212;7.482;2022-12-20T14:13:36;7.93;;;4.25;;
76193;SDS011;64963;52.212;7.482;2022-12-20T14:16:15;8.55;;;4.65;;
76193;SDS011;64963;52.212;7.482;2022-12-20T14:18:40;7.60;;;4.30;;
76193;SDS011;64963;52.212;7.482;2022-12-20T14:21:06;7.30;;;4.00;;
76193;SDS011;64963;52.212;7.482;2022-12-20T14:23:42;8.38;;;4.38;;
76193;SDS011;64963;52.212;7.482;2022-12-20T14:26:14;8.18;;;4.10;;
76193;SDS011;64963;52.212;7.482;2022-12-20T14:28:47;10.00;;;4.95;;
76193;SDS011;64963;52.212;7.482;2022-12-20T14:33:47;7.93;;;4.60;;
76193;SDS011;64963;52.212;7.482;2022-12-20T14:38:45;7.77;;;4.17;;
76193;SDS011;64963;52.212;7.482;2022-12-20T14:43:55;9.32;;;4.43;;
76193;SDS011;64963;52.212;7.482;2022-12-20T14:46:20;8.40;;;4.68;;
76193;SDS011;64963;52.212;7.482;2022-12-20T14:48:46;6.77;;;4.10;;
76193;SDS011;64963;52.212;7.482;2022-12-20T14:51:11;8.53;;;5.30;;
76193;SDS011;64963;52.212;7.482;2022-12-20T14:53:37;11.85;;;6.28;;
76193;SDS011;64963;52.212;7.482;2022-12-20T14:56:03;14.37;;;6.53;;
76193;SDS011;64963;52.212;7.482;2022-12-20T14:58:29;13.65;;;7.15;;
76193;SDS011;64963;52.212;7.482;2022-12-20T15:03:23;14.77;;;8.68;;
76193;SDS011;64963;52.212;7.482;2022-12-20T15:05:52;16.02;;;8.80;;
76193;SDS011;64963;52.212;7.482;2022-12-20T15:08:28;16.33;;;9.30;;
76193;SDS011;64963;52.212;7.482;2022-12-20T15:10:55;15.57;;;9.32;;
76193;SDS011;64963;52.212;7.482;2022-12-20T15:13:22;18.13;;;10.73;;
76193;SDS011;64963;52.212;7.482;2022-12-20T15:15:48;18.75;;;11.10;;
76193;SDS011;64963;52.212;7.482;2022-12-20T15:18:14;17.33;;;11.20;;
76193;SDS011;64963;52.212;7.482;2022-12-20T15:20:40;18.80;;;11.50;;
76193;SDS011;64963;52.212;7.482;2022-12-20T15:23:08;17.70;;;11.17;;
76193;SDS011;64963;52.212;7.482;2022-12-20T15:25:36;21.50;;;14.00;;
76193;SDS011;64963;52.212;7.482;2022-12-20T15:28:01;24.23;;;13.00;;
76193;SDS011;64963;52.212;7.482;2022-12-20T15:30:26;20.07;;;12.47;;
76193;SDS011;64963;52.212;7.482;2022-12-20T15:32:51;20.33;;;14.40;;
76193;SDS011;64963;52.212;7.482;2022-12-20T15:35:16;24.37;;;14.07;;
76193;SDS011;64963;52.212;7.482;2022-12-20T15:37:42;24.17;;;13.93;;
76193;SDS011;64963;52.212;7.482;2022-12-20T15:40:11;25.33;;;14.33;;
76193;SDS011;64963;52.212;7.482;2022-12-20T15:42:37;27.58;;;16.25;;
76193;SDS011;64963;52.212;7.482;2022-12-20T15:45:03;32.55;;;17.38;;
76193;SDS011;64963;52.212;7.482;2022-12-20T15:47:28;21.97;;;13.53;;
76193;SDS011;64963;52.212;7.482;2022-12-20T15:49:53;24.17;;;14.90;;
76193;SDS011;64963;52.212;7.482;2022-12-20T15:52:19;19.77;;;13.20;;
76193;SDS011;64963;52.212;7.482;2022-12-20T15:54:45;23.65;;;13.65;;
76193;SDS011;64963;52.212;7.482;2022-12-20T15:57:12;24.33;;;15.57;;
76193;SDS011;64963;52.212;7.482;2022-12-20T15:59:37;22.83;;;13.30;;
76193;SDS011;64963;52.212;7.482;2022-12-20T16:02:02;22.23;;;13.97;;
76193;SDS011;64963;52.212;7.482;2022-12-20T16:04:28;18.87;;;12.90;;
76193;SDS011;64963;52.212;7.482;2022-12-20T16:06:53;22.67;;;13.60;;
76193;SDS011;64963;52.212;7.482;2022-12-20T16:09:18;36.50;;;14.90;;
76193;SDS011;64963;52.212;7.482;2022-12-20T16:11:44;18.67;;;11.07;;
76193;SDS011;64963;52.212;7.482;2022-12-20T16:14:19;19.53;;;11.90;;
76193;SDS011;64963;52.212;7.482;2022-12-20T16:16:44;17.73;;;11.18;;
76193;SDS011;64963;52.212;7.482;2022-12-20T16:19:18;19.60;;;11.40;;
76193;SDS011;64963;52.212;7.482;2022-12-20T16:21:47;17.20;;;10.70;;
76193;SDS011;64963;52.212;7.482;2022-12-20T16:24:14;16.35;;;10.75;;
76193;SDS011;64963;52.212;7.482;2022-12-20T16:26:39;18.25;;;11.40;;
76193;SDS011;64963;52.212;7.482;2022-12-20T16:29:04;19.10;;;11.40;;
76193;SDS011;64963;52.212;7.482;2022-12-20T16:31:30;17.57;;;11.23;;
76193;SDS011;64963;52.212;7.482;2022-12-20T16:33:56;18.20;;;11.20;;
76193;SDS011;64963;52.212;7.482;2022-12-20T16:36:22;21.23;;;12.73;;
76193;SDS011;64963;52.212;7.482;2022-12-20T16:38:48;19.88;;;12.60;;
76193;SDS011;64963;52.212;7.482;2022-12-20T16:41:34;18.63;;;12.77;;
76193;SDS011;64963;52.212;7.482;2022-12-20T16:43:59;18.77;;;11.93;;
76193;SDS011;64963;52.212;7.482;2022-12-20T16:46:26;20.52;;;12.82;;
76193;SDS011;64963;52.212;7.482;2022-12-20T16:48:53;23.30;;;13.93;;
76193;SDS011;64963;52.212;7.482;2022-12-20T16:51:25;21.87;;;13.10;;
76193;SDS011;64963;52.212;7.482;2022-12-20T16:53:51;23.00;;;12.85;;